sensor_id;sensor_type;location;lat;lon;timestamp;P1;durP1;ratioP1;P2;durP2;ratioP2
13641;SDS011;6894;52.196;9.904;2024-03-23T00:55:14;7.50;;;2.80;;
13641;SDS011;6894;52.196;9.904;2024-03-23T00:57:40;6.57;;;3.23;;
13641;SDS011;6894;52.196;9.904;2024-03-23T01:00:07;5.10;;;2.53;;
13641;SDS011;6894;52.196;9.904;2024-03-23T01:02:35;4.83;;;2.47;;
13641;SDS011;6894;52.196;9.904;2024-03-23T01:05:01;8.20;;;2.30;;
13641;SDS011;6894;52.196;9.904;2024-03-23T01:07:28;9.93;;;2.80;;
13641;SDS011;6894;52.196;9.904;2024-03-23T01:09:54;9.27;;;2.90;;
13641;SDS011;6894;52.196;9.904;2024-03-23T01:12:23;7.07;;;2.93;;
13641;SDS011;6894;52.196;9.904;2024-03-23T01:14:48;7.20;;;3.23;;
13641;SDS011;6894;52.196;9.904;2024-03-23T01:17:15;6.30;;;2.70;;
13641;SDS011;6894;52.196;9.904;2024-03-23T01:19:41;9.80;;;3.63;;
13641;SDS011;6894;52.196;9.904;2024-03-23T01:22:08;9.30;;;3.80;;
13641;SDS011;6894;52.196;9.904;2024-03-23T01:24:35;8.90;;;3.93;;
13641;SDS011;6894;52.196;9.904;2024-03-23T01:27:02;6.63;;;3.10;;
13641;SDS011;6894;52.196;9.904;2024-03-23T01:29:29;5.77;;;2.97;;
13641;SDS011;6894;52.196;9.904;2024-03-23T01:31:56;8.13;;;2.80;;
13641;SDS011;6894;52.196;9.904;2024-03-23T01:34:22;7.23;;;3.13;;
13641;SDS011;6894;52.196;9.904;2024-03-23T01:36:50;9.87;;;3.30;;
13641;SDS011;6894;52.196;9.904;2024-03-23T01:39:16;8.07;;;3.17;;
13641;SDS011;6894;52.196;9.904;2024-03-23T01:41:43;10.90;;;3.13;;
13641;SDS011;6894;52.196;9.904;2024-03-23T01:44:09;9.37;;;3.30;;
13641;SDS011;6894;52.196;9.904;2024-03-23T01:46:37;9.87;;;3.80;;
13641;SDS011;6894;52.196;9.904;2024-03-23T01:49:04;10.23;;;3.27;;
13641;SDS011;6894;52.196;9.904;2024-03-23T01:51:31;6.37;;;3.13;;
13641;SDS011;6894;52.196;9.904;2024-03-23T01:53:58;4.63;;;2.30;;
13641;SDS011;6894;52.196;9.904;2024-03-23T01:56:28;8.33;;;3.00;;
13641;SDS011;6894;52.196;9.904;2024-03-23T01:58:55;8.50;;;3.03;;
13641;SDS011;6894;52.196;9.904;2024-03-23T02:01:22;10.27;;;3.17;;
13641;SDS011;6894;52.196;9.904;2024-03-23T02:03:49;7.13;;;2.70;;
13641;SDS011;6894;52.196;9.904;2024-03-23T02:06:16;5.70;;;2.73;;
13641;SDS011;6894;52.196;9.904;2024-03-23T02:08:43;7.73;;;3.00;;
13641;SDS011;6894;52.196;9.904;2024-03-23T02:11:10;9.13;;;3.33;;
13641;SDS011;6894;52.196;9.904;2024-03-23T02:13:36;7.30;;;3.10;;
13641;SDS011;6894;52.196;9.904;2024-03-23T02:16:04;9.23;;;3.20;;
13641;SDS011;6894;52.196;9.904;2024-03-23T02:18:30;7.33;;;3.10;;
13641;SDS011;6894;52.196;9.904;2024-03-23T02:20:58;5.77;;;2.80;;
13641;SDS011;6894;52.196;9.904;2024-03-23T02:23:26;6.53;;;2.90;;
13641;SDS011;6894;52.196;9.904;2024-03-23T02:25:53;8.13;;;3.07;;
13641;SDS011;6894;52.196;9.904;2024-03-23T02:28:19;6.87;;;3.30;;
13641;SDS011;6894;52.196;9.904;2024-03-23T02:30:47;7.83;;;3.13;;
13641;SDS011;6894;52.196;9.904;2024-03-23T02:33:13;5.63;;;2.67;;
13641;SDS011;6894;52.196;9.904;2024-03-23T02:35:40;5.97;;;3.03;;
13641;SDS011;6894;52.196;9.904;2024-03-23T02:38:06;8.67;;;3.03;;
13641;SDS011;6894;52.196;9.904;2024-03-23T02:40:34;7.40;;;3.63;;
13641;SDS011;6894;52.196;9.904;2024-03-23T02:43:02;5.33;;;3.33;;
13641;SDS011;6894;52.196;9.904;2024-03-23T02:45:29;7.07;;;3.27;;
13641;SDS011;6894;52.196;9.904;2024-03-23T02:47:55;6.87;;;2.87;;
13641;SDS011;6894;52.196;9.904;2024-03-23T02:50:22;8.90;;;3.10;;
13641;SDS011;6894;52.196;9.904;2024-03-23T02:52:48;8.13;;;4.13;;
13641;SDS011;6894;52.196;9.904;2024-03-23T02:55:15;8.10;;;3.23;;
13641;SDS011;6894;52.196;9.904;2024-03-23T02:57:42;3.37;;;2.17;;
13641;SDS011;6894;52.196;9.904;2024-03-23T03:00:09;6.53;;;2.77;;
13641;SDS011;6894;52.196;9.904;2024-03-23T03:02:36;6.93;;;3.10;;
13641;SDS011;6894;52.196;9.904;2024-03-23T03:05:03;7.63;;;3.13;;
13641;SDS011;6894;52.196;9.904;2024-03-23T03:07:30;5.83;;;3.40;;
13641;SDS011;6894;52.196;9.904;2024-03-23T03:09:57;5.70;;;3.53;;
13641;SDS011;6894;52.196;9.904;2024-03-23T03:12:23;6.10;;;3.60;;
13641;SDS011;6894;52.196;9.904;2024-03-23T03:14:51;6.67;;;3.80;;
13641;SDS011;6894;52.196;9.904;2024-03-23T03:17:17;12.63;;;5.27;;
13641;SDS011;6894;52.196;9.904;2024-03-23T03:19:44;8.57;;;4.43;;
13641;SDS011;6894;52.196;9.904;2024-03-23T03:22:10;6.13;;;3.63;;
13641;SDS011;6894;52.196;9.904;2024-03-23T03:24:37;9.37;;;4.30;;
13641;SDS011;6894;52.196;9.904;2024-03-23T03:27:04;8.17;;;4.20;;
13641;SDS011;6894;52.196;9.904;2024-03-23T03:29:31;6.10;;;4.40;;
13641;SDS011;6894;52.196;9.904;2024-03-23T03:32:02;7.03;;;4.40;;
13641;SDS011;6894;52.196;9.904;2024-03-23T03:34:28;10.53;;;4.50;;
13641;SDS011;6894;52.196;9.904;2024-03-23T03:36:55;6.43;;;3.57;;
13641;SDS011;6894;52.196;9.904;2024-03-23T03:39:21;6.63;;;3.87;;
13641;SDS011;6894;52.196;9.904;2024-03-23T03:41:48;7.97;;;4.00;;
13641;SDS011;6894;52.196;9.904;2024-03-23T03:44:14;6.40;;;4.43;;
13641;SDS011;6894;52.196;9.904;2024-03-23T03:46:42;9.93;;;4.57;;
13641;SDS011;6894;52.196;9.904;2024-03-23T03:49:09;8.90;;;4.50;;
13641;SDS011;6894;52.196;9.904;2024-03-23T03:51:36;6.37;;;3.40;;
13641;SDS011;6894;52.196;9.904;2024-03-23T03:54:02;9.63;;;4.80;;
13641;SDS011;6894;52.196;9.904;2024-03-23T03:56:29;7.13;;;4.20;;
13641;SDS011;6894;52.196;9.904;2024-03-23T03:58:55;7.93;;;4.40;;
13641;SDS011;6894;52.196;9.904;2024-03-23T04:01:22;6.80;;;4.20;;
13641;SDS011;6894;52.196;9.904;2024-03-23T04:03:47;8.73;;;3.77;;
13641;SDS011;6894;52.196;9.904;2024-03-23T04:06:19;7.83;;;4.40;;
13641;SDS011;6894;52.196;9.904;2024-03-23T04:08:45;7.50;;;3.90;;
13641;SDS011;6894;52.196;9.904;2024-03-23T04:11:12;9.00;;;3.57;;
13641;SDS011;6894;52.196;9.904;2024-03-23T04:13:38;6.50;;;3.20;;
13641;SDS011;6894;52.196;9.904;2024-03-23T04:16:06;5.73;;;3.27;;
13641;SDS011;6894;52.196;9.904;2024-03-23T04:18:32;7.43;;;3.23;;
13641;SDS011;6894;52.196;9.904;2024-03-23T04:21:00;9.40;;;3.17;;
13641;SDS011;6894;52.196;9.904;2024-03-23T04:23:27;6.40;;;2.80;;
13641;SDS011;6894;52.196;9.904;2024-03-23T04:25:54;7.23;;;3.23;;
13641;SDS011;6894;52.196;9.904;2024-03-23T04:28:20;7.00;;;3.43;;
13641;SDS011;6894;52.196;9.904;2024-03-23T04:30:47;8.97;;;2.77;;
13641;SDS011;6894;52.196;9.904;2024-03-23T04:33:13;8.17;;;2.73;;
13641;SDS011;6894;52.196;9.904;2024-03-23T04:35:40;5.20;;;2.73;;
13641;SDS011;6894;52.196;9.904;2024-03-23T04:38:05;5.27;;;2.10;;
13641;SDS011;6894;52.196;9.904;2024-03-23T04:40:35;6.70;;;2.27;;
13641;SDS011;6894;52.196;9.904;2024-03-23T04:43:02;7.57;;;2.30;;
13641;SDS011;6894;52.196;9.904;2024-03-23T04:45:29;8.40;;;2.37;;
13641;SDS011;6894;52.196;9.904;2024-03-23T04:47:56;6.00;;;1.73;;
13641;SDS011;6894;52.196;9.904;2024-03-23T04:50:23;9.60;;;2.33;;
13641;SDS011;6894;52.196;9.904;2024-03-23T04:52:50;5.53;;;1.87;;
13641;SDS011;6894;52.196;9.904;2024-03-23T04:55:16;5.97;;;2.03;;
13641;SDS011;6894;52.196;9.904;2024-03-23T04:57:44;7.30;;;2.23;;
13641;SDS011;6894;52.196;9.904;2024-03-23T05:00:11;6.40;;;2.13;;
13641;SDS011;6894;52.196;9.904;2024-03-23T05:02:43;5.83;;;1.83;;
13641;SDS011;6894;52.196;9.904;2024-03-23T05:05:10;5.97;;;2.07;;
13641;SDS011;6894;52.196;9.904;2024-03-23T05:07:37;8.67;;;2.30;;
13641;SDS011;6894;52.196;9.904;2024-03-23T05:10:03;9.73;;;2.40;;
13641;SDS011;6894;52.196;9.904;2024-03-23T05:12:30;6.17;;;2.23;;
13641;SDS011;6894;52.196;9.904;2024-03-23T05:14:58;7.03;;;1.77;;
13641;SDS011;6894;52.196;9.904;2024-03-23T05:17:25;6.33;;;2.13;;
13641;SDS011;6894;52.196;9.904;2024-03-23T05:19:52;5.93;;;2.03;;
13641;SDS011;6894;52.196;9.904;2024-03-23T05:22:18;4.73;;;2.53;;
13641;SDS011;6894;52.196;9.904;2024-03-23T05:24:45;8.23;;;2.40;;
13641;SDS011;6894;52.196;9.904;2024-03-23T05:27:10;6.33;;;1.97;;
13641;SDS011;6894;52.196;9.904;2024-03-23T05:29:37;6.10;;;2.07;;
13641;SDS011;6894;52.196;9.904;2024-03-23T05:32:05;7.20;;;1.90;;
13641;SDS011;6894;52.196;9.904;2024-03-23T05:34:32;9.33;;;2.27;;
13641;SDS011;6894;52.196;9.904;2024-03-23T05:36:58;10.20;;;3.67;;
13641;SDS011;6894;52.196;9.904;2024-03-23T05:39:25;7.07;;;2.57;;
13641;SDS011;6894;52.196;9.904;2024-03-23T05:41:51;7.33;;;2.67;;
13641;SDS011;6894;52.196;9.904;2024-03-23T05:44:18;7.47;;;2.80;;
13641;SDS011;6894;52.196;9.904;2024-03-23T05:46:44;4.73;;;1.87;;
13641;SDS011;6894;52.196;9.904;2024-03-23T05:49:15;9.60;;;3.03;;
13641;SDS011;6894;52.196;9.904;2024-03-23T05:51:41;8.57;;;2.93;;
13641;SDS011;6894;52.196;9.904;2024-03-23T05:54:08;7.30;;;2.53;;
13641;SDS011;6894;52.196;9.904;2024-03-23T05:56:34;4.77;;;1.80;;
13641;SDS011;6894;52.196;9.904;2024-03-23T05:59:01;8.30;;;2.40;;
13641;SDS011;6894;52.196;9.904;2024-03-23T06:01:28;5.03;;;2.00;;
13641;SDS011;6894;52.196;9.904;2024-03-23T06:03:57;3.83;;;1.60;;
13641;SDS011;6894;52.196;9.904;2024-03-23T06:06:25;6.67;;;1.30;;
13641;SDS011;6894;52.196;9.904;2024-03-23T06:08:51;9.63;;;1.87;;
13641;SDS011;6894;52.196;9.904;2024-03-23T06:11:17;5.07;;;1.00;;
13641;SDS011;6894;52.196;9.904;2024-03-23T06:13:44;4.73;;;1.20;;
13641;SDS011;6894;52.196;9.904;2024-03-23T06:16:10;5.80;;;1.37;;
13641;SDS011;6894;52.196;9.904;2024-03-23T06:18:37;8.93;;;1.60;;
13641;SDS011;6894;52.196;9.904;2024-03-23T06:21:04;5.00;;;1.77;;
13641;SDS011;6894;52.196;9.904;2024-03-23T06:23:32;7.93;;;1.63;;
13641;SDS011;6894;52.196;9.904;2024-03-23T06:25:58;5.40;;;1.43;;
13641;SDS011;6894;52.196;9.904;2024-03-23T06:28:25;6.40;;;1.40;;
13641;SDS011;6894;52.196;9.904;2024-03-23T06:30:51;8.57;;;1.90;;
13641;SDS011;6894;52.196;9.904;2024-03-23T06:33:18;6.77;;;2.07;;
13641;SDS011;6894;52.196;9.904;2024-03-23T06:35:49;8.73;;;2.07;;
13641;SDS011;6894;52.196;9.904;2024-03-23T06:38:17;7.43;;;2.43;;
13641;SDS011;6894;52.196;9.904;2024-03-23T06:40:44;7.17;;;2.13;;
13641;SDS011;6894;52.196;9.904;2024-03-23T06:43:13;7.03;;;2.47;;
13641;SDS011;6894;52.196;9.904;2024-03-23T06:45:39;6.50;;;2.33;;
13641;SDS011;6894;52.196;9.904;2024-03-23T06:48:06;7.30;;;1.97;;
13641;SDS011;6894;52.196;9.904;2024-03-23T06:50:33;6.07;;;2.00;;
13641;SDS011;6894;52.196;9.904;2024-03-23T06:53:00;5.93;;;1.80;;
13641;SDS011;6894;52.196;9.904;2024-03-23T06:55:27;8.17;;;1.80;;
13641;SDS011;6894;52.196;9.904;2024-03-23T06:57:55;9.43;;;2.50;;
13641;SDS011;6894;52.196;9.904;2024-03-23T07:00:22;6.83;;;1.77;;
13641;SDS011;6894;52.196;9.904;2024-03-23T07:02:50;9.20;;;2.37;;
13641;SDS011;6894;52.196;9.904;2024-03-23T07:05:16;8.80;;;1.63;;
13641;SDS011;6894;52.196;9.904;2024-03-23T07:07:43;7.07;;;1.80;;
13641;SDS011;6894;52.196;9.904;2024-03-23T07:10:09;4.17;;;1.40;;
13641;SDS011;6894;52.196;9.904;2024-03-23T07:12:36;9.83;;;2.17;;
13641;SDS011;6894;52.196;9.904;2024-03-23T07:15:04;8.97;;;1.73;;
13641;SDS011;6894;52.196;9.904;2024-03-23T07:17:31;7.10;;;1.63;;
13641;SDS011;6894;52.196;9.904;2024-03-23T07:19:58;8.57;;;1.90;;
13641;SDS011;6894;52.196;9.904;2024-03-23T07:22:26;7.93;;;2.00;;
13641;SDS011;6894;52.196;9.904;2024-03-23T07:24:52;5.03;;;1.60;;
13641;SDS011;6894;52.196;9.904;2024-03-23T07:27:19;6.30;;;1.73;;
13641;SDS011;6894;52.196;9.904;2024-03-23T07:29:45;7.00;;;1.90;;
13641;SDS011;6894;52.196;9.904;2024-03-23T07:32:13;7.73;;;2.07;;
13641;SDS011;6894;52.196;9.904;2024-03-23T07:34:39;7.00;;;2.53;;
13641;SDS011;6894;52.196;9.904;2024-03-23T07:37:08;6.10;;;2.13;;
13641;SDS011;6894;52.196;9.904;2024-03-23T07:39:34;8.43;;;2.30;;
13641;SDS011;6894;52.196;9.904;2024-03-23T07:42:01;7.23;;;1.70;;
13641;SDS011;6894;52.196;9.904;2024-03-23T07:44:27;7.67;;;1.97;;
13641;SDS011;6894;52.196;9.904;2024-03-23T07:46:54;7.03;;;1.90;;
13641;SDS011;6894;52.196;9.904;2024-03-23T07:49:22;3.73;;;1.93;;
13641;SDS011;6894;52.196;9.904;2024-03-23T07:51:48;5.93;;;1.93;;
13641;SDS011;6894;52.196;9.904;2024-03-23T07:54:14;7.90;;;2.10;;
13641;SDS011;6894;52.196;9.904;2024-03-23T07:56:41;6.93;;;2.10;;
13641;SDS011;6894;52.196;9.904;2024-03-23T07:59:07;6.63;;;2.03;;
13641;SDS011;6894;52.196;9.904;2024-03-23T08:01:34;10.43;;;3.77;;
13641;SDS011;6894;52.196;9.904;2024-03-23T08:04:00;9.23;;;5.60;;
13641;SDS011;6894;52.196;9.904;2024-03-23T08:06:28;7.30;;;3.33;;
13641;SDS011;6894;52.196;9.904;2024-03-23T08:08:55;10.17;;;4.57;;
13641;SDS011;6894;52.196;9.904;2024-03-23T08:11:25;7.33;;;4.00;;
13641;SDS011;6894;52.196;9.904;2024-03-23T08:13:51;6.37;;;3.30;;
13641;SDS011;6894;52.196;9.904;2024-03-23T08:16:18;9.30;;;4.50;;
13641;SDS011;6894;52.196;9.904;2024-03-23T08:18:44;10.50;;;3.30;;
13641;SDS011;6894;52.196;9.904;2024-03-23T08:21:11;7.70;;;3.77;;
13641;SDS011;6894;52.196;9.904;2024-03-23T08:23:39;14.27;;;4.23;;
13641;SDS011;6894;52.196;9.904;2024-03-23T08:26:06;9.03;;;4.83;;
13641;SDS011;6894;52.196;9.904;2024-03-23T08:28:33;13.50;;;4.60;;
13641;SDS011;6894;52.196;9.904;2024-03-23T08:31:01;16.07;;;5.07;;
13641;SDS011;6894;52.196;9.904;2024-03-23T08:33:28;10.70;;;4.97;;
13641;SDS011;6894;52.196;9.904;2024-03-23T08:35:56;8.70;;;5.07;;
13641;SDS011;6894;52.196;9.904;2024-03-23T08:38:23;9.50;;;5.10;;
13641;SDS011;6894;52.196;9.904;2024-03-23T08:40:57;12.50;;;5.20;;
13641;SDS011;6894;52.196;9.904;2024-03-23T08:43:23;13.93;;;6.37;;
13641;SDS011;6894;52.196;9.904;2024-03-23T08:45:50;14.97;;;6.10;;
13641;SDS011;6894;52.196;9.904;2024-03-23T08:48:17;12.37;;;6.17;;
13641;SDS011;6894;52.196;9.904;2024-03-23T08:50:45;13.37;;;6.13;;
13641;SDS011;6894;52.196;9.904;2024-03-23T08:53:11;20.63;;;8.10;;
13641;SDS011;6894;52.196;9.904;2024-03-23T08:55:38;12.07;;;6.40;;
13641;SDS011;6894;52.196;9.904;2024-03-23T08:58:05;16.37;;;6.57;;
13641;SDS011;6894;52.196;9.904;2024-03-23T09:00:33;12.20;;;5.60;;
13641;SDS011;6894;52.196;9.904;2024-03-23T09:02:59;9.73;;;4.93;;
13641;SDS011;6894;52.196;9.904;2024-03-23T09:05:26;16.47;;;5.47;;
13641;SDS011;6894;52.196;9.904;2024-03-23T09:07:53;12.63;;;5.47;;
13641;SDS011;6894;52.196;9.904;2024-03-23T09:10:20;13.73;;;5.03;;
13641;SDS011;6894;52.196;9.904;2024-03-23T09:12:47;8.90;;;4.57;;
13641;SDS011;6894;52.196;9.904;2024-03-23T09:15:15;10.47;;;4.47;;
13641;SDS011;6894;52.196;9.904;2024-03-23T09:17:41;13.67;;;4.23;;
13641;SDS011;6894;52.196;9.904;2024-03-23T09:20:09;7.90;;;3.93;;
13641;SDS011;6894;52.196;9.904;2024-03-23T09:22:35;10.90;;;4.30;;
13641;SDS011;6894;52.196;9.904;2024-03-23T09:25:02;12.40;;;4.57;;
13641;SDS011;6894;52.196;9.904;2024-03-23T09:27:30;6.17;;;3.47;;
13641;SDS011;6894;52.196;9.904;2024-03-23T09:29:57;11.83;;;4.07;;
13641;SDS011;6894;52.196;9.904;2024-03-23T09:32:24;10.73;;;4.03;;
13641;SDS011;6894;52.196;9.904;2024-03-23T09:34:51;11.27;;;5.27;;
13641;SDS011;6894;52.196;9.904;2024-03-23T09:37:17;12.73;;;5.60;;
13641;SDS011;6894;52.196;9.904;2024-03-23T09:39:43;11.97;;;4.80;;
13641;SDS011;6894;52.196;9.904;2024-03-23T09:42:09;14.97;;;5.07;;
13641;SDS011;6894;52.196;9.904;2024-03-23T09:44:36;13.03;;;4.70;;
13641;SDS011;6894;52.196;9.904;2024-03-23T09:47:03;13.43;;;3.93;;
13641;SDS011;6894;52.196;9.904;2024-03-23T09:49:32;8.20;;;3.53;;
13641;SDS011;6894;52.196;9.904;2024-03-23T09:52:01;8.30;;;3.50;;
13641;SDS011;6894;52.196;9.904;2024-03-23T09:54:28;13.80;;;4.20;;
13641;SDS011;6894;52.196;9.904;2024-03-23T09:56:54;9.90;;;4.20;;
13641;SDS011;6894;52.196;9.904;2024-03-23T09:59:21;18.53;;;5.50;;
13641;SDS011;6894;52.196;9.904;2024-03-23T10:01:47;13.03;;;4.97;;
13641;SDS011;6894;52.196;9.904;2024-03-23T10:07:13;10.30;;;3.67;;
13641;SDS011;6894;52.196;9.904;2024-03-23T10:09:42;16.50;;;5.10;;
13641;SDS011;6894;52.196;9.904;2024-03-23T10:12:09;11.33;;;4.73;;
13641;SDS011;6894;52.196;9.904;2024-03-23T10:14:37;9.03;;;4.30;;
13641;SDS011;6894;52.196;9.904;2024-03-23T10:17:12;14.40;;;4.87;;
13641;SDS011;6894;52.196;9.904;2024-03-23T10:19:44;10.60;;;3.60;;
13641;SDS011;6894;52.196;9.904;2024-03-23T10:22:13;7.73;;;3.23;;
13641;SDS011;6894;52.196;9.904;2024-03-23T10:24:41;10.27;;;3.53;;
13641;SDS011;6894;52.196;9.904;2024-03-23T10:27:07;6.77;;;3.43;;
13641;SDS011;6894;52.196;9.904;2024-03-23T10:29:34;9.10;;;4.37;;
13641;SDS011;6894;52.196;9.904;2024-03-23T10:32:09;14.13;;;3.80;;
13641;SDS011;6894;52.196;9.904;2024-03-23T10:34:37;10.33;;;3.13;;
13641;SDS011;6894;52.196;9.904;2024-03-23T10:37:05;7.53;;;3.13;;
13641;SDS011;6894;52.196;9.904;2024-03-23T10:39:33;10.20;;;3.40;;
13641;SDS011;6894;52.196;9.904;2024-03-23T10:42:01;10.63;;;3.40;;
13641;SDS011;6894;52.196;9.904;2024-03-23T10:44:29;7.33;;;3.07;;
13641;SDS011;6894;52.196;9.904;2024-03-23T10:46:56;8.83;;;3.17;;
13641;SDS011;6894;52.196;9.904;2024-03-23T10:49:26;10.00;;;3.77;;
13641;SDS011;6894;52.196;9.904;2024-03-23T10:51:54;10.87;;;3.53;;
13641;SDS011;6894;52.196;9.904;2024-03-23T10:54:25;6.20;;;2.70;;
13641;SDS011;6894;52.196;9.904;2024-03-23T10:56:52;8.37;;;2.60;;
13641;SDS011;6894;52.196;9.904;2024-03-23T10:59:25;2.10;;;1.13;;
13641;SDS011;6894;52.196;9.904;2024-03-23T11:01:55;2.10;;;0.80;;
13641;SDS011;6894;52.196;9.904;2024-03-23T11:04:32;2.60;;;0.90;;
13641;SDS011;6894;52.196;9.904;2024-03-23T11:06:58;3.37;;;1.17;;
13641;SDS011;6894;52.196;9.904;2024-03-23T11:09:39;2.37;;;1.10;;
13641;SDS011;6894;52.196;9.904;2024-03-23T11:12:24;1.40;;;0.73;;
13641;SDS011;6894;52.196;9.904;2024-03-23T11:14:57;4.53;;;1.50;;
13641;SDS011;6894;52.196;9.904;2024-03-23T11:17:28;6.20;;;1.37;;
13641;SDS011;6894;52.196;9.904;2024-03-23T11:19:56;4.30;;;1.70;;
13641;SDS011;6894;52.196;9.904;2024-03-23T11:22:37;7.83;;;1.60;;
13641;SDS011;6894;52.196;9.904;2024-03-23T11:25:13;4.80;;;2.17;;
13641;SDS011;6894;52.196;9.904;2024-03-23T11:27:43;5.13;;;2.30;;
13641;SDS011;6894;52.196;9.904;2024-03-23T11:30:12;3.87;;;1.87;;
13641;SDS011;6894;52.196;9.904;2024-03-23T11:32:39;5.47;;;2.30;;
13641;SDS011;6894;52.196;9.904;2024-03-23T11:35:06;6.10;;;2.07;;
13641;SDS011;6894;52.196;9.904;2024-03-23T11:37:32;5.70;;;1.37;;
13641;SDS011;6894;52.196;9.904;2024-03-23T11:39:59;5.50;;;1.60;;
13641;SDS011;6894;52.196;9.904;2024-03-23T11:42:28;3.30;;;1.20;;
13641;SDS011;6894;52.196;9.904;2024-03-23T11:44:55;3.50;;;1.83;;
13641;SDS011;6894;52.196;9.904;2024-03-23T11:47:20;3.37;;;1.93;;
13641;SDS011;6894;52.196;9.904;2024-03-23T11:49:48;4.07;;;2.07;;
13641;SDS011;6894;52.196;9.904;2024-03-23T11:52:14;4.17;;;2.13;;
13641;SDS011;6894;52.196;9.904;2024-03-23T11:54:43;6.17;;;2.50;;
13641;SDS011;6894;52.196;9.904;2024-03-23T11:57:09;5.33;;;2.30;;
13641;SDS011;6894;52.196;9.904;2024-03-23T11:59:38;5.37;;;1.83;;
13641;SDS011;6894;52.196;9.904;2024-03-23T12:02:08;3.30;;;2.00;;
13641;SDS011;6894;52.196;9.904;2024-03-23T12:04:36;4.77;;;2.00;;
13641;SDS011;6894;52.196;9.904;2024-03-23T12:07:09;4.77;;;1.93;;
13641;SDS011;6894;52.196;9.904;2024-03-23T12:09:37;9.63;;;2.97;;
13641;SDS011;6894;52.196;9.904;2024-03-23T12:12:07;5.53;;;2.13;;
13641;SDS011;6894;52.196;9.904;2024-03-23T12:14:35;4.97;;;2.97;;
13641;SDS011;6894;52.196;9.904;2024-03-23T12:17:08;5.53;;;2.27;;
13641;SDS011;6894;52.196;9.904;2024-03-23T12:19:36;5.47;;;2.60;;
13641;SDS011;6894;52.196;9.904;2024-03-23T12:22:02;4.83;;;2.20;;
13641;SDS011;6894;52.196;9.904;2024-03-23T12:24:30;4.17;;;2.40;;
13641;SDS011;6894;52.196;9.904;2024-03-23T12:26:59;6.23;;;1.80;;
13641;SDS011;6894;52.196;9.904;2024-03-23T12:29:28;3.00;;;1.53;;
13641;SDS011;6894;52.196;9.904;2024-03-23T12:31:54;3.07;;;1.60;;
13641;SDS011;6894;52.196;9.904;2024-03-23T12:34:23;5.53;;;1.63;;
13641;SDS011;6894;52.196;9.904;2024-03-23T12:36:49;6.77;;;1.70;;
13641;SDS011;6894;52.196;9.904;2024-03-23T12:39:16;2.30;;;1.37;;
13641;SDS011;6894;52.196;9.904;2024-03-23T12:41:41;3.50;;;1.47;;
13641;SDS011;6894;52.196;9.904;2024-03-23T12:44:08;3.33;;;1.50;;
13641;SDS011;6894;52.196;9.904;2024-03-23T12:46:36;3.03;;;1.53;;
13641;SDS011;6894;52.196;9.904;2024-03-23T12:49:03;4.10;;;1.60;;
13641;SDS011;6894;52.196;9.904;2024-03-23T12:51:31;3.17;;;1.50;;
13641;SDS011;6894;52.196;9.904;2024-03-23T12:53:59;3.13;;;1.60;;
13641;SDS011;6894;52.196;9.904;2024-03-23T12:56:24;2.83;;;1.90;;
13641;SDS011;6894;52.196;9.904;2024-03-23T12:58:53;1.97;;;1.30;;
13641;SDS011;6894;52.196;9.904;2024-03-23T13:01:20;0.70;;;0.70;;
13641;SDS011;6894;52.196;9.904;2024-03-23T13:03:47;1.30;;;0.83;;
13641;SDS011;6894;52.196;9.904;2024-03-23T13:06:14;1.00;;;0.80;;
13641;SDS011;6894;52.196;9.904;2024-03-23T13:08:42;1.90;;;0.90;;
13641;SDS011;6894;52.196;9.904;2024-03-23T13:11:09;2.17;;;1.07;;
13641;SDS011;6894;52.196;9.904;2024-03-23T13:13:36;1.80;;;1.00;;
13641;SDS011;6894;52.196;9.904;2024-03-23T13:16:02;2.60;;;0.83;;
13641;SDS011;6894;52.196;9.904;2024-03-23T13:18:30;1.70;;;1.10;;
13641;SDS011;6894;52.196;9.904;2024-03-23T13:20:57;1.23;;;0.90;;
13641;SDS011;6894;52.196;9.904;2024-03-23T13:23:24;1.13;;;0.90;;
13641;SDS011;6894;52.196;9.904;2024-03-23T13:25:51;2.13;;;1.00;;
13641;SDS011;6894;52.196;9.904;2024-03-23T13:28:19;2.80;;;0.90;;
13641;SDS011;6894;52.196;9.904;2024-03-23T13:30:51;1.37;;;0.90;;
13641;SDS011;6894;52.196;9.904;2024-03-23T13:33:18;1.40;;;0.90;;
13641;SDS011;6894;52.196;9.904;2024-03-23T13:35:51;2.07;;;0.90;;
13641;SDS011;6894;52.196;9.904;2024-03-23T13:38:19;2.17;;;0.90;;
13641;SDS011;6894;52.196;9.904;2024-03-23T13:40:53;2.73;;;1.10;;
13641;SDS011;6894;52.196;9.904;2024-03-23T13:43:21;1.63;;;1.00;;
13641;SDS011;6894;52.196;9.904;2024-03-23T13:45:48;2.17;;;1.10;;
13641;SDS011;6894;52.196;9.904;2024-03-23T13:48:17;3.20;;;1.20;;
13641;SDS011;6894;52.196;9.904;2024-03-23T13:50:44;3.83;;;1.40;;
13641;SDS011;6894;52.196;9.904;2024-03-23T13:53:12;2.23;;;1.50;;
13641;SDS011;6894;52.196;9.904;2024-03-23T13:55:43;2.97;;;1.30;;
13641;SDS011;6894;52.196;9.904;2024-03-23T13:58:14;2.77;;;1.40;;
13641;SDS011;6894;52.196;9.904;2024-03-23T14:00:41;3.13;;;1.37;;
13641;SDS011;6894;52.196;9.904;2024-03-23T14:03:08;6.43;;;1.50;;
13641;SDS011;6894;52.196;9.904;2024-03-23T14:05:34;4.10;;;1.40;;
13641;SDS011;6894;52.196;9.904;2024-03-23T14:08:03;2.23;;;1.40;;
13641;SDS011;6894;52.196;9.904;2024-03-23T14:10:30;2.40;;;1.30;;
13641;SDS011;6894;52.196;9.904;2024-03-23T14:12:56;3.60;;;1.30;;
13641;SDS011;6894;52.196;9.904;2024-03-23T14:15:24;3.23;;;1.43;;
13641;SDS011;6894;52.196;9.904;2024-03-23T14:17:51;3.50;;;2.00;;
13641;SDS011;6894;52.196;9.904;2024-03-23T14:20:17;4.37;;;2.27;;
13641;SDS011;6894;52.196;9.904;2024-03-23T14:22:44;3.07;;;1.63;;
13641;SDS011;6894;52.196;9.904;2024-03-23T14:25:09;4.73;;;1.50;;
13641;SDS011;6894;52.196;9.904;2024-03-23T14:27:36;1.47;;;1.20;;
13641;SDS011;6894;52.196;9.904;2024-03-23T14:30:03;2.90;;;1.53;;
13641;SDS011;6894;52.196;9.904;2024-03-23T14:32:32;2.43;;;1.20;;
13641;SDS011;6894;52.196;9.904;2024-03-23T14:34:59;1.27;;;1.03;;
13641;SDS011;6894;52.196;9.904;2024-03-23T14:37:26;1.47;;;1.10;;
13641;SDS011;6894;52.196;9.904;2024-03-23T14:39:52;1.17;;;0.90;;
13641;SDS011;6894;52.196;9.904;2024-03-23T14:42:19;1.43;;;0.40;;
13641;SDS011;6894;52.196;9.904;2024-03-23T14:44:45;1.27;;;0.40;;
13641;SDS011;6894;52.196;9.904;2024-03-23T14:47:12;0.63;;;0.50;;
13641;SDS011;6894;52.196;9.904;2024-03-23T14:49:39;1.13;;;0.30;;
13641;SDS011;6894;52.196;9.904;2024-03-23T14:52:06;1.37;;;1.03;;
13641;SDS011;6894;52.196;9.904;2024-03-23T14:54:34;1.40;;;1.27;;
13641;SDS011;6894;52.196;9.904;2024-03-23T14:57:01;2.30;;;0.50;;
13641;SDS011;6894;52.196;9.904;2024-03-23T14:59:28;1.03;;;0.40;;
13641;SDS011;6894;52.196;9.904;2024-03-23T15:01:55;1.40;;;1.30;;
13641;SDS011;6894;52.196;9.904;2024-03-23T15:04:21;1.93;;;1.03;;
13641;SDS011;6894;52.196;9.904;2024-03-23T15:06:49;1.97;;;1.13;;
13641;SDS011;6894;52.196;9.904;2024-03-23T15:09:15;1.27;;;0.70;;
13641;SDS011;6894;52.196;9.904;2024-03-23T15:11:43;0.67;;;0.40;;
13641;SDS011;6894;52.196;9.904;2024-03-23T15:14:09;2.77;;;2.17;;
13641;SDS011;6894;52.196;9.904;2024-03-23T15:16:36;0.90;;;0.40;;
13641;SDS011;6894;52.196;9.904;2024-03-23T15:19:02;1.70;;;0.53;;
13641;SDS011;6894;52.196;9.904;2024-03-23T15:21:31;1.53;;;0.60;;
13641;SDS011;6894;52.196;9.904;2024-03-23T15:23:58;0.97;;;0.60;;
13641;SDS011;6894;52.196;9.904;2024-03-23T15:26:25;1.87;;;0.77;;
13641;SDS011;6894;52.196;9.904;2024-03-23T15:28:51;1.47;;;0.60;;
13641;SDS011;6894;52.196;9.904;2024-03-23T15:31:35;1.10;;;0.50;;
13641;SDS011;6894;52.196;9.904;2024-03-23T15:34:02;0.93;;;0.60;;
13641;SDS011;6894;52.196;9.904;2024-03-23T15:36:29;0.87;;;0.80;;
13641;SDS011;6894;52.196;9.904;2024-03-23T15:38:55;1.57;;;0.63;;
13641;SDS011;6894;52.196;9.904;2024-03-23T15:41:24;1.20;;;0.50;;
13641;SDS011;6894;52.196;9.904;2024-03-23T15:43:50;1.47;;;0.60;;
13641;SDS011;6894;52.196;9.904;2024-03-23T15:46:17;1.17;;;0.57;;
13641;SDS011;6894;52.196;9.904;2024-03-23T15:48:44;1.30;;;0.60;;
13641;SDS011;6894;52.196;9.904;2024-03-23T15:51:13;3.77;;;1.00;;
13641;SDS011;6894;52.196;9.904;2024-03-23T15:53:40;1.87;;;0.90;;
13641;SDS011;6894;52.196;9.904;2024-03-23T15:56:07;1.97;;;0.80;;
13641;SDS011;6894;52.196;9.904;2024-03-23T15:58:35;1.67;;;0.87;;